Lake Arrowhead, CA

6:48 PM PDT on August 27, 2015 (GMT -0700)
TOWERING PINES | | Change Station
CLOSE
Current Station
Personal Weather Station
Location: Lake Arrowhead, CA
Elevation: 5141 ft
Nearby Weather Stations

Elev 5141 ft 34.27 °N, 117.18 °W | Updated 1 minute ago

Partly Cloudy
Partly Cloudy
79.5 °F
Feels Like 80 °F
N
0.0
Wind Variable Wind from North

Today
High -- | Low -- °F
--% Chance of Precip.
Yesterday
High -- | Low -- °F
Precip. -- in
6:18 AM 7:21 PM
Waxing Gibbous, 96% visible
Pressure 30.32 in
Visibility 10.0 miles
Clouds Scattered Clouds 8000 ft
Heat Index 80 °F
Dew Point 53 °F
Humidity 40%
Rainfall 0.00 in
Snow Depth Not available.
UV 0 out of 12
Pollen 5.50 out of 12
Air Quality Not available.
Flu Activity Not available.
METAR KL35 280135Z AUTO 23004KT 10SM SCT080 22/07 A3032 RMK AO2
Pressure 30.32 in
Visibility 10.0 miles
Clouds Scattered Clouds 8000 ft
Heat Index 80 °F
Dew Point 53 °F
Humidity 40%
Rainfall 0.00 in
Snow Depth Not available.
UV 0 out of 12
Pollen 5.50 out of 12
Air Quality Not available.
Flu Activity Not available.
METAR KL35 280135Z AUTO 23004KT 10SM SCT080 22/07 A3032 RMK AO2

10-Day Weather Forecast

×

Almanac

Astronomy

Aug. 27, 2015 Rise Set
Actual Time
Civil Twilight
Nautical Twilight
Astronomical Twilight
Moon
Length of Visible Light
Length of Day
Tomorrow will be .
, % of the Moon is Illuminated

Today's Extremes

State Highs State Lows

Community

WunderPhotos

Upload Photos

1,850,296 photos uploaded!

WunderBlogs® & News

Nearby

Air Quality

  Air Quality AQ Index Pollutant
Not available.

Snow Depth

Station Depth Elevation

Earthquake Activity

City Distance Mag. Time & Date
Minimum magnitude displayed is 2.5.

Coastal Water Temperatures

Place Temperature

Stations

Nearby Weather Stations

Station Location Temp. Windchill Dew Point Humidity Wind Precip. Elev Updated Type